sensor_id;sensor_type;location;lat;lon;timestamp;pressure;altitude;pressure_sealevel;temperature;humidity
42519;BME280;28147;47.520;18.920;2022-12-07T00:01:41;98335.59;;;7.68;56.96
42519;BME280;28147;47.520;18.920;2022-12-07T00:04:10;98325.59;;;7.45;57.29
42519;BME280;28147;47.520;18.920;2022-12-07T00:06:38;98323.47;;;7.28;57.86
42519;BME280;28147;47.520;18.920;2022-12-07T00:16:22;98313.34;;;6.80;59.29
42519;BME280;28147;47.520;18.920;2022-12-07T00:18:48;98306.38;;;6.93;58.79
42519;BME280;28147;47.520;18.920;2022-12-07T00:21:16;98302.72;;;6.94;58.77
42519;BME280;28147;47.520;18.920;2022-12-07T00:31:00;98296.94;;;6.65;59.36
42519;BME280;28147;47.520;18.920;2022-12-07T00:35:17;98298.66;;;6.91;58.42
42519;BME280;28147;47.520;18.920;2022-12-07T00:40:27;98297.44;;;6.87;58.54
42519;BME280;28147;47.520;18.920;2022-12-07T00:42:52;98298.94;;;6.76;58.60
42519;BME280;28147;47.520;18.920;2022-12-07T00:45:18;98305.03;;;6.77;58.74
42519;BME280;28147;47.520;18.920;2022-12-07T00:48:24;98297.47;;;6.80;58.28
42519;BME280;28147;47.520;18.920;2022-12-07T00:50:50;98295.63;;;6.81;58.46
42519;BME280;28147;47.520;18.920;2022-12-07T00:53:16;98292.19;;;6.80;58.34
42519;BME280;28147;47.520;18.920;2022-12-07T00:55:41;98292.47;;;6.66;58.54
42519;BME280;28147;47.520;18.920;2022-12-07T00:58:07;98296.16;;;6.58;59.10
42519;BME280;28147;47.520;18.920;2022-12-07T01:00:35;98287.28;;;6.84;58.35
42519;BME280;28147;47.520;18.920;2022-12-07T01:03:00;98284.41;;;6.86;58.22
42519;BME280;28147;47.520;18.920;2022-12-07T01:05:26;98296.69;;;6.73;58.69
42519;BME280;28147;47.520;18.920;2022-12-07T01:07:51;98288.19;;;7.03;57.97
42519;BME280;28147;47.520;18.920;2022-12-07T01:10:17;98295.28;;;7.09;57.88
42519;BME280;28147;47.520;18.920;2022-12-07T01:12:42;98296.81;;;6.92;57.85
42519;BME280;28147;47.520;18.920;2022-12-07T01:15:08;98288.03;;;6.98;57.73
42519;BME280;28147;47.520;18.920;2022-12-07T01:17:34;98300.22;;;6.99;57.21
42519;BME280;28147;47.520;18.920;2022-12-07T01:19:59;98297.44;;;6.87;57.16
42519;BME280;28147;47.520;18.920;2022-12-07T01:22:25;98298.13;;;7.07;57.05
42519;BME280;28147;47.520;18.920;2022-12-07T01:24:50;98290.09;;;6.89;56.96
42519;BME280;28147;47.520;18.920;2022-12-07T01:27:16;98287.91;;;6.86;57.15
42519;BME280;28147;47.520;18.920;2022-12-07T01:33:30;98285.31;;;6.73;57.93
42519;BME280;28147;47.520;18.920;2022-12-07T01:38:33;98285.88;;;6.81;58.11
42519;BME280;28147;47.520;18.920;2022-12-07T01:41:00;98300.69;;;6.89;58.17
42519;BME280;28147;47.520;18.920;2022-12-07T01:43:28;98286.66;;;6.89;58.50
42519;BME280;28147;47.520;18.920;2022-12-07T01:45:55;98287.97;;;7.04;58.41
42519;BME280;28147;47.520;18.920;2022-12-07T01:48:25;98278.09;;;6.93;58.89
42519;BME280;28147;47.520;18.920;2022-12-07T01:50:53;98283.31;;;7.00;58.91
42519;BME280;28147;47.520;18.920;2022-12-07T01:53:21;98276.31;;;7.44;57.74
42519;BME280;28147;47.520;18.920;2022-12-07T01:59:17;98280.50;;;7.26;58.61
42519;BME280;28147;47.520;18.920;2022-12-07T02:01:44;98273.81;;;7.24;58.65
42519;BME280;28147;47.520;18.920;2022-12-07T02:04:11;98273.50;;;7.39;58.84
42519;BME280;28147;47.520;18.920;2022-12-07T02:06:37;98275.19;;;7.26;59.21
42519;BME280;28147;47.520;18.920;2022-12-07T02:09:04;98268.63;;;7.36;59.18
42519;BME280;28147;47.520;18.920;2022-12-07T02:12:36;98271.22;;;7.42;59.29
42519;BME280;28147;47.520;18.920;2022-12-07T02:15:01;98264.34;;;7.35;59.59
42519;BME280;28147;47.520;18.920;2022-12-07T02:29:31;98263.03;;;7.69;59.26
42519;BME280;28147;47.520;18.920;2022-12-07T02:37:21;98267.13;;;7.46;60.36
42519;BME280;28147;47.520;18.920;2022-12-07T02:39:54;98263.00;;;7.50;59.93
42519;BME280;28147;47.520;18.920;2022-12-07T02:42:27;98264.88;;;7.68;59.84
42519;BME280;28147;47.520;18.920;2022-12-07T02:44:55;98262.53;;;7.78;59.69
42519;BME280;28147;47.520;18.920;2022-12-07T02:47:21;98266.75;;;7.86;59.20
42519;BME280;28147;47.520;18.920;2022-12-07T02:49:49;98261.44;;;7.86;59.38
42519;BME280;28147;47.520;18.920;2022-12-07T02:52:58;98257.75;;;7.87;59.08
42519;BME280;28147;47.520;18.920;2022-12-07T03:15:32;98235.25;;;7.78;60.95
42519;BME280;28147;47.520;18.920;2022-12-07T03:18:00;98238.66;;;7.60;61.58
42519;BME280;28147;47.520;18.920;2022-12-07T03:20:39;98233.66;;;7.52;62.03
42519;BME280;28147;47.520;18.920;2022-12-07T03:23:08;98230.00;;;7.28;62.85
42519;BME280;28147;47.520;18.920;2022-12-07T03:25:38;98230.94;;;7.34;62.81
42519;BME280;28147;47.520;18.920;2022-12-07T03:38:13;98256.03;;;7.99;60.96
42519;BME280;28147;47.520;18.920;2022-12-07T03:43:17;98251.91;;;8.03;61.08
42519;BME280;28147;47.520;18.920;2022-12-07T03:45:50;98258.94;;;7.73;62.18
42519;BME280;28147;47.520;18.920;2022-12-07T03:54:39;98262.22;;;8.12;61.43
42519;BME280;28147;47.520;18.920;2022-12-07T03:57:08;98255.28;;;7.92;61.69
42519;BME280;28147;47.520;18.920;2022-12-07T03:59:35;98252.84;;;8.09;61.82
42519;BME280;28147;47.520;18.920;2022-12-07T04:05:19;98256.63;;;7.58;63.34
42519;BME280;28147;47.520;18.920;2022-12-07T04:07:45;98252.47;;;7.44;63.86
42519;BME280;28147;47.520;18.920;2022-12-07T04:10:11;98262.03;;;7.70;63.60
42519;BME280;28147;47.520;18.920;2022-12-07T04:12:36;98267.69;;;7.73;63.39
42519;BME280;28147;47.520;18.920;2022-12-07T04:15:03;98262.50;;;7.60;63.75
42519;BME280;28147;47.520;18.920;2022-12-07T04:17:29;98262.41;;;7.73;63.42
42519;BME280;28147;47.520;18.920;2022-12-07T04:19:54;98268.38;;;8.05;62.60
42519;BME280;28147;47.520;18.920;2022-12-07T04:22:19;98261.03;;;7.89;62.92
42519;BME280;28147;47.520;18.920;2022-12-07T04:24:45;98262.03;;;8.07;62.83
42519;BME280;28147;47.520;18.920;2022-12-07T04:27:10;98258.22;;;8.02;62.20
42519;BME280;28147;47.520;18.920;2022-12-07T04:32:09;98259.38;;;7.70;63.63
42519;BME280;28147;47.520;18.920;2022-12-07T04:34:35;98255.56;;;7.84;63.29
42519;BME280;28147;47.520;18.920;2022-12-07T04:37:00;98252.63;;;7.92;62.98
42519;BME280;28147;47.520;18.920;2022-12-07T04:42:00;98267.97;;;8.27;62.01
42519;BME280;28147;47.520;18.920;2022-12-07T04:44:27;98271.53;;;8.14;62.08
42519;BME280;28147;47.520;18.920;2022-12-07T04:46:54;98268.47;;;8.36;61.57
42519;BME280;28147;47.520;18.920;2022-12-07T04:49:19;98267.97;;;8.45;61.60
42519;BME280;28147;47.520;18.920;2022-12-07T04:51:45;98266.34;;;8.08;62.24
42519;BME280;28147;47.520;18.920;2022-12-07T04:54:12;98264.47;;;7.90;62.92
42519;BME280;28147;47.520;18.920;2022-12-07T04:56:38;98262.66;;;8.09;62.70
42519;BME280;28147;47.520;18.920;2022-12-07T04:59:04;98254.97;;;7.82;63.34
42519;BME280;28147;47.520;18.920;2022-12-07T05:01:30;98265.75;;;7.62;64.10
42519;BME280;28147;47.520;18.920;2022-12-07T05:03:56;98254.47;;;7.48;64.86
42519;BME280;28147;47.520;18.920;2022-12-07T05:06:22;98257.53;;;7.45;65.03
42519;BME280;28147;47.520;18.920;2022-12-07T05:08:47;98251.25;;;7.65;64.33
42519;BME280;28147;47.520;18.920;2022-12-07T05:11:13;98251.06;;;6.85;66.95
42519;BME280;28147;47.520;18.920;2022-12-07T05:13:59;98252.75;;;6.72;66.93
42519;BME280;28147;47.520;18.920;2022-12-07T05:16:25;98240.69;;;6.45;68.13
42519;BME280;28147;47.520;18.920;2022-12-07T05:18:50;98253.44;;;6.54;67.46
42519;BME280;28147;47.520;18.920;2022-12-07T05:23:07;98245.47;;;6.99;66.53
42519;BME280;28147;47.520;18.920;2022-12-07T05:25:32;98250.63;;;7.44;65.75
42519;BME280;28147;47.520;18.920;2022-12-07T05:27:58;98255.06;;;7.50;65.17
42519;BME280;28147;47.520;18.920;2022-12-07T05:30:24;98251.81;;;7.73;64.42
42519;BME280;28147;47.520;18.920;2022-12-07T05:32:50;98249.91;;;7.80;64.21
42519;BME280;28147;47.520;18.920;2022-12-07T05:35:16;98252.19;;;7.77;63.76
42519;BME280;28147;47.520;18.920;2022-12-07T05:37:41;98255.25;;;7.74;63.94
42519;BME280;28147;47.520;18.920;2022-12-07T05:40:08;98254.34;;;7.62;64.42
42519;BME280;28147;47.520;18.920;2022-12-07T05:42:33;98248.50;;;7.53;64.87
42519;BME280;28147;47.520;18.920;2022-12-07T05:44:59;98248.59;;;7.65;64.66
42519;BME280;28147;47.520;18.920;2022-12-07T05:47:24;98254.03;;;7.51;64.18
42519;BME280;28147;47.520;18.920;2022-12-07T05:49:50;98246.47;;;7.55;64.60
42519;BME280;28147;47.520;18.920;2022-12-07T05:52:15;98254.28;;;7.68;64.01
42519;BME280;28147;47.520;18.920;2022-12-07T05:54:41;98253.00;;;7.52;64.73
42519;BME280;28147;47.520;18.920;2022-12-07T05:57:06;98261.59;;;7.73;64.11
42519;BME280;28147;47.520;18.920;2022-12-07T05:59:31;98253.16;;;7.57;64.48
42519;BME280;28147;47.520;18.920;2022-12-07T06:04:38;98260.50;;;7.30;65.09
42519;BME280;28147;47.520;18.920;2022-12-07T06:07:05;98254.22;;;7.00;66.52
42519;BME280;28147;47.520;18.920;2022-12-07T06:09:31;98255.13;;;7.12;66.10
42519;BME280;28147;47.520;18.920;2022-12-07T06:11:57;98258.47;;;7.32;65.57
42519;BME280;28147;47.520;18.920;2022-12-07T06:14:28;98260.78;;;7.47;65.64
42519;BME280;28147;47.520;18.920;2022-12-07T06:16:53;98258.41;;;7.39;65.34
42519;BME280;28147;47.520;18.920;2022-12-07T06:19:19;98263.53;;;7.59;64.73
42519;BME280;28147;47.520;18.920;2022-12-07T06:21:52;98259.91;;;7.53;64.75
42519;BME280;28147;47.520;18.920;2022-12-07T06:24:18;98257.50;;;7.52;64.63
42519;BME280;28147;47.520;18.920;2022-12-07T06:26:44;98256.69;;;7.51;64.91
42519;BME280;28147;47.520;18.920;2022-12-07T06:29:10;98251.53;;;7.56;64.99
42519;BME280;28147;47.520;18.920;2022-12-07T06:31:37;98252.47;;;7.87;64.15
42519;BME280;28147;47.520;18.920;2022-12-07T06:34:04;98257.97;;;7.67;64.40
42519;BME280;28147;47.520;18.920;2022-12-07T06:36:30;98261.66;;;7.66;64.49
42519;BME280;28147;47.520;18.920;2022-12-07T06:41:02;98269.63;;;7.85;63.86
42519;BME280;28147;47.520;18.920;2022-12-07T06:43:27;98266.97;;;8.03;63.45
42519;BME280;28147;47.520;18.920;2022-12-07T06:46:02;98270.25;;;7.80;63.84
42519;BME280;28147;47.520;18.920;2022-12-07T06:48:27;98273.63;;;7.69;64.50
42519;BME280;28147;47.520;18.920;2022-12-07T06:50:52;98271.84;;;8.24;62.34
42519;BME280;28147;47.520;18.920;2022-12-07T06:53:19;98271.16;;;7.74;63.62
42519;BME280;28147;47.520;18.920;2022-12-07T06:55:45;98276.28;;;7.69;63.96
42519;BME280;28147;47.520;18.920;2022-12-07T06:58:10;98275.94;;;7.84;63.49
42519;BME280;28147;47.520;18.920;2022-12-07T07:00:35;98274.19;;;7.52;64.07
42519;BME280;28147;47.520;18.920;2022-12-07T07:03:01;98271.69;;;7.57;64.19
42519;BME280;28147;47.520;18.920;2022-12-07T07:05:27;98275.00;;;6.96;66.19
42519;BME280;28147;47.520;18.920;2022-12-07T07:07:52;98264.84;;;7.93;63.29
42519;BME280;28147;47.520;18.920;2022-12-07T07:10:17;98277.97;;;7.88;63.05
42519;BME280;28147;47.520;18.920;2022-12-07T07:12:43;98275.88;;;7.47;64.39
42519;BME280;28147;47.520;18.920;2022-12-07T07:15:08;98259.53;;;7.50;64.41
42519;BME280;28147;47.520;18.920;2022-12-07T07:17:34;98282.06;;;7.84;63.31
42519;BME280;28147;47.520;18.920;2022-12-07T07:20:00;98284.25;;;7.87;63.98
42519;BME280;28147;47.520;18.920;2022-12-07T07:22:25;98278.31;;;7.73;64.22
42519;BME280;28147;47.520;18.920;2022-12-07T07:24:51;98280.22;;;8.03;63.36
42519;BME280;28147;47.520;18.920;2022-12-07T07:27:16;98291.41;;;7.87;64.07
42519;BME280;28147;47.520;18.920;2022-12-07T07:29:41;98281.63;;;8.05;63.08
42519;BME280;28147;47.520;18.920;2022-12-07T07:32:07;98283.88;;;8.27;63.00
42519;BME280;28147;47.520;18.920;2022-12-07T07:34:33;98277.22;;;8.18;63.29
42519;BME280;28147;47.520;18.920;2022-12-07T07:36:58;98280.59;;;8.07;64.08
42519;BME280;28147;47.520;18.920;2022-12-07T07:39:24;98282.31;;;8.01;64.54
42519;BME280;28147;47.520;18.920;2022-12-07T07:41:49;98280.16;;;7.91;64.97
42519;BME280;28147;47.520;18.920;2022-12-07T07:44:23;98283.56;;;7.55;66.09
42519;BME280;28147;47.520;18.920;2022-12-07T07:46:49;98274.31;;;7.07;67.33
42519;BME280;28147;47.520;18.920;2022-12-07T07:49:14;98280.69;;;7.00;67.77
42519;BME280;28147;47.520;18.920;2022-12-07T07:51:39;98271.59;;;7.21;67.02
42519;BME280;28147;47.520;18.920;2022-12-07T07:54:05;98275.69;;;7.42;66.38
42519;BME280;28147;47.520;18.920;2022-12-07T07:56:30;98271.53;;;7.52;66.47
42519;BME280;28147;47.520;18.920;2022-12-07T07:58:56;98282.16;;;7.27;67.29
42519;BME280;28147;47.520;18.920;2022-12-07T08:01:21;98276.47;;;7.49;66.71
42519;BME280;28147;47.520;18.920;2022-12-07T08:03:47;98281.50;;;8.00;64.94
42519;BME280;28147;47.520;18.920;2022-12-07T08:06:13;98286.81;;;8.19;64.35
42519;BME280;28147;47.520;18.920;2022-12-07T08:08:38;98287.84;;;7.74;65.59
42519;BME280;28147;47.520;18.920;2022-12-07T08:11:08;98290.50;;;7.24;67.54
42519;BME280;28147;47.520;18.920;2022-12-07T08:13:34;98293.09;;;7.31;67.52
42519;BME280;28147;47.520;18.920;2022-12-07T08:16:04;98291.06;;;7.58;67.03
42519;BME280;28147;47.520;18.920;2022-12-07T08:18:30;98296.47;;;7.70;66.81
42519;BME280;28147;47.520;18.920;2022-12-07T08:23:33;98301.09;;;7.49;68.10
42519;BME280;28147;47.520;18.920;2022-12-07T08:26:12;98309.84;;;8.00;67.16
42519;BME280;28147;47.520;18.920;2022-12-07T08:28:38;98302.38;;;8.52;65.83
42519;BME280;28147;47.520;18.920;2022-12-07T08:31:10;98305.91;;;8.64;64.19
42519;BME280;28147;47.520;18.920;2022-12-07T08:33:36;98303.53;;;9.05;64.21
42519;BME280;28147;47.520;18.920;2022-12-07T08:36:03;98298.53;;;8.96;63.26
42519;BME280;28147;47.520;18.920;2022-12-07T08:38:29;98306.91;;;9.12;62.99
42519;BME280;28147;47.520;18.920;2022-12-07T08:40:55;98305.00;;;9.00;63.53
42519;BME280;28147;47.520;18.920;2022-12-07T08:43:21;98303.31;;;9.60;62.68
42519;BME280;28147;47.520;18.920;2022-12-07T08:45:48;98309.19;;;9.62;62.22
42519;BME280;28147;47.520;18.920;2022-12-07T08:48:19;98306.44;;;9.57;63.24
42519;BME280;28147;47.520;18.920;2022-12-07T08:50:47;98305.88;;;9.90;62.31
42519;BME280;28147;47.520;18.920;2022-12-07T08:53:13;98308.31;;;9.91;61.90
42519;BME280;28147;47.520;18.920;2022-12-07T08:55:39;98305.53;;;10.10;61.33
42519;BME280;28147;47.520;18.920;2022-12-07T08:58:04;98307.13;;;10.11;61.30
42519;BME280;28147;47.520;18.920;2022-12-07T09:00:30;98304.03;;;10.26;61.54
42519;BME280;28147;47.520;18.920;2022-12-07T09:02:55;98309.44;;;10.07;60.20
42519;BME280;28147;47.520;18.920;2022-12-07T09:05:21;98299.28;;;10.16;60.47
42519;BME280;28147;47.520;18.920;2022-12-07T09:07:49;98304.94;;;9.96;60.95
42519;BME280;28147;47.520;18.920;2022-12-07T09:10:16;98303.91;;;10.32;60.77
42519;BME280;28147;47.520;18.920;2022-12-07T09:12:42;98300.56;;;10.02;60.76
42519;BME280;28147;47.520;18.920;2022-12-07T09:15:08;98296.28;;;10.36;60.44
42519;BME280;28147;47.520;18.920;2022-12-07T09:17:34;98292.94;;;10.29;60.69
42519;BME280;28147;47.520;18.920;2022-12-07T09:20:01;98288.41;;;10.29;61.28
42519;BME280;28147;47.520;18.920;2022-12-07T09:22:30;98293.94;;;10.51;60.39
42519;BME280;28147;47.520;18.920;2022-12-07T09:24:59;98287.88;;;10.56;59.37
42519;BME280;28147;47.520;18.920;2022-12-07T09:27:25;98285.97;;;10.80;58.79
42519;BME280;28147;47.520;18.920;2022-12-07T09:29:50;98287.94;;;10.84;59.08
42519;BME280;28147;47.520;18.920;2022-12-07T09:32:15;98280.19;;;11.79;58.05
42519;BME280;28147;47.520;18.920;2022-12-07T09:34:41;98270.31;;;11.29;58.69
42519;BME280;28147;47.520;18.920;2022-12-07T09:37:06;98268.28;;;12.03;56.99
42519;BME280;28147;47.520;18.920;2022-12-07T09:39:32;98268.56;;;11.68;57.28
42519;BME280;28147;47.520;18.920;2022-12-07T09:41:59;98265.97;;;11.39;57.73
42519;BME280;28147;47.520;18.920;2022-12-07T09:44:27;98274.69;;;10.89;58.28
42519;BME280;28147;47.520;18.920;2022-12-07T09:46:54;98264.03;;;10.89;57.85
42519;BME280;28147;47.520;18.920;2022-12-07T09:49:22;98261.63;;;11.33;56.51
42519;BME280;28147;47.520;18.920;2022-12-07T09:54:28;98260.78;;;11.16;56.48
42519;BME280;28147;47.520;18.920;2022-12-07T09:56:54;98261.56;;;11.00;56.15
42519;BME280;28147;47.520;18.920;2022-12-07T09:59:19;98262.72;;;11.04;55.66
42519;BME280;28147;47.520;18.920;2022-12-07T10:01:49;98273.63;;;10.90;55.74
42519;BME280;28147;47.520;18.920;2022-12-07T10:04:17;98271.94;;;10.84;55.07
42519;BME280;28147;47.520;18.920;2022-12-07T10:06:43;98271.66;;;10.69;56.39
42519;BME280;28147;47.520;18.920;2022-12-07T10:09:14;98274.78;;;10.94;55.56
42519;BME280;28147;47.520;18.920;2022-12-07T10:12:02;98268.94;;;10.81;56.07
42519;BME280;28147;47.520;18.920;2022-12-07T10:14:31;98268.00;;;10.58;56.08
42519;BME280;28147;47.520;18.920;2022-12-07T10:16:57;98273.75;;;10.67;56.47
42519;BME280;28147;47.520;18.920;2022-12-07T10:19:29;98265.25;;;10.41;57.70
42519;BME280;28147;47.520;18.920;2022-12-07T10:22:13;98261.56;;;10.42;56.42
42519;BME280;28147;47.520;18.920;2022-12-07T10:24:40;98249.72;;;10.79;55.51
42519;BME280;28147;47.520;18.920;2022-12-07T10:27:31;98254.59;;;10.53;57.10
42519;BME280;28147;47.520;18.920;2022-12-07T10:29:57;98255.34;;;10.65;56.86
42519;BME280;28147;47.520;18.920;2022-12-07T10:32:34;98250.91;;;10.42;56.44
42519;BME280;28147;47.520;18.920;2022-12-07T10:35:30;98243.38;;;10.80;56.36
42519;BME280;28147;47.520;18.920;2022-12-07T10:37:58;98248.47;;;10.98;54.96
42519;BME280;28147;47.520;18.920;2022-12-07T10:40:34;98256.31;;;10.88;55.71
42519;BME280;28147;47.520;18.920;2022-12-07T10:48:29;98250.44;;;11.19;54.52
42519;BME280;28147;47.520;18.920;2022-12-07T10:59:38;98251.03;;;10.76;54.77
42519;BME280;28147;47.520;18.920;2022-12-07T11:07:38;98243.72;;;10.71;56.04
42519;BME280;28147;47.520;18.920;2022-12-07T11:10:32;98235.22;;;10.86;54.66
42519;BME280;28147;47.520;18.920;2022-12-07T11:18:35;98236.41;;;11.24;54.66
42519;BME280;28147;47.520;18.920;2022-12-07T11:21:20;98237.13;;;10.74;54.84
42519;BME280;28147;47.520;18.920;2022-12-07T11:24:08;98236.44;;;10.50;55.40
42519;BME280;28147;47.520;18.920;2022-12-07T11:32:26;98225.94;;;10.60;55.76
42519;BME280;28147;47.520;18.920;2022-12-07T11:38:16;98228.53;;;10.84;55.23
42519;BME280;28147;47.520;18.920;2022-12-07T11:40:47;98236.94;;;10.64;55.11
42519;BME280;28147;47.520;18.920;2022-12-07T11:46:05;98243.44;;;10.28;55.89
42519;BME280;28147;47.520;18.920;2022-12-07T11:48:38;98230.94;;;10.57;56.46
42519;BME280;28147;47.520;18.920;2022-12-07T11:51:09;98233.56;;;10.97;55.40
42519;BME280;28147;47.520;18.920;2022-12-07T11:53:49;98228.22;;;10.80;54.01
42519;BME280;28147;47.520;18.920;2022-12-07T11:56:21;98217.81;;;10.95;54.07
42519;BME280;28147;47.520;18.920;2022-12-07T12:03:48;98201.41;;;10.87;51.79
42519;BME280;28147;47.520;18.920;2022-12-07T12:06:14;98196.66;;;11.39;52.39
42519;BME280;28147;47.520;18.920;2022-12-07T12:08:54;98195.06;;;11.05;52.54
42519;BME280;28147;47.520;18.920;2022-12-07T12:19:42;98189.13;;;10.69;52.98
42519;BME280;28147;47.520;18.920;2022-12-07T12:22:22;98185.22;;;11.05;52.03
42519;BME280;28147;47.520;18.920;2022-12-07T12:24:53;98190.53;;;10.88;52.34
42519;BME280;28147;47.520;18.920;2022-12-07T12:27:32;98181.00;;;11.09;52.30
42519;BME280;28147;47.520;18.920;2022-12-07T12:30:01;98174.72;;;10.99;52.59
42519;BME280;28147;47.520;18.920;2022-12-07T12:32:39;98169.22;;;10.88;52.61
42519;BME280;28147;47.520;18.920;2022-12-07T12:37:48;98172.56;;;10.67;52.87
42519;BME280;28147;47.520;18.920;2022-12-07T12:42:47;98173.03;;;10.92;52.29
42519;BME280;28147;47.520;18.920;2022-12-07T12:45:32;98176.00;;;10.96;52.98
42519;BME280;28147;47.520;18.920;2022-12-07T12:48:07;98167.91;;;10.91;53.63
42519;BME280;28147;47.520;18.920;2022-12-07T12:54:03;98173.09;;;10.98;52.99
42519;BME280;28147;47.520;18.920;2022-12-07T12:56:46;98177.84;;;10.79;53.42
42519;BME280;28147;47.520;18.920;2022-12-07T13:01:48;98180.94;;;10.87;52.65
42519;BME280;28147;47.520;18.920;2022-12-07T13:04:24;98187.47;;;10.80;52.15
42519;BME280;28147;47.520;18.920;2022-12-07T13:06:51;98189.13;;;10.69;52.75
42519;BME280;28147;47.520;18.920;2022-12-07T13:09:25;98191.88;;;10.74;52.46
42519;BME280;28147;47.520;18.920;2022-12-07T13:12:01;98195.47;;;10.68;52.56
42519;BME280;28147;47.520;18.920;2022-12-07T13:14:58;98184.88;;;10.56;52.35
42519;BME280;28147;47.520;18.920;2022-12-07T13:20:03;98188.13;;;10.30;53.83
42519;BME280;28147;47.520;18.920;2022-12-07T13:27:41;98188.94;;;10.30;54.40
42519;BME280;28147;47.520;18.920;2022-12-07T13:30:19;98185.84;;;10.10;54.34
42519;BME280;28147;47.520;18.920;2022-12-07T13:32:57;98188.78;;;9.85;55.38
42519;BME280;28147;47.520;18.920;2022-12-07T13:35:31;98192.25;;;9.97;55.85
42519;BME280;28147;47.520;18.920;2022-12-07T13:37:57;98191.78;;;9.88;54.80
42519;BME280;28147;47.520;18.920;2022-12-07T13:40:25;98192.47;;;9.95;54.91
42519;BME280;28147;47.520;18.920;2022-12-07T13:42:59;98200.63;;;10.17;54.20
42519;BME280;28147;47.520;18.920;2022-12-07T13:45:31;98201.50;;;9.94;53.62
42519;BME280;28147;47.520;18.920;2022-12-07T13:48:30;98207.25;;;9.91;54.22
42519;BME280;28147;47.520;18.920;2022-12-07T13:50:58;98204.91;;;10.07;54.82
42519;BME280;28147;47.520;18.920;2022-12-07T13:53:25;98207.47;;;10.25;54.21
42519;BME280;28147;47.520;18.920;2022-12-07T13:55:59;98202.34;;;10.64;61.93
42519;BME280;28147;47.520;18.920;2022-12-07T13:58:26;98201.78;;;10.21;54.99
42519;BME280;28147;47.520;18.920;2022-12-07T14:00:52;98215.09;;;10.10;55.08
42519;BME280;28147;47.520;18.920;2022-12-07T14:05:44;98210.97;;;9.90;56.52
42519;BME280;28147;47.520;18.920;2022-12-07T14:13:56;98206.84;;;9.59;56.47
42519;BME280;28147;47.520;18.920;2022-12-07T14:16:25;98209.97;;;9.44;57.25
42519;BME280;28147;47.520;18.920;2022-12-07T14:18:53;98208.91;;;9.34;57.85
42519;BME280;28147;47.520;18.920;2022-12-07T14:24:47;98200.59;;;9.30;57.47
42519;BME280;28147;47.520;18.920;2022-12-07T14:27:21;98209.38;;;9.31;57.69
42519;BME280;28147;47.520;18.920;2022-12-07T14:29:47;98208.09;;;9.33;56.41
42519;BME280;28147;47.520;18.920;2022-12-07T14:32:24;98206.59;;;9.14;57.83
42519;BME280;28147;47.520;18.920;2022-12-07T14:35:31;98204.72;;;9.02;57.92
42519;BME280;28147;47.520;18.920;2022-12-07T14:37:49;98205.63;;;8.96;57.83
42519;BME280;28147;47.520;18.920;2022-12-07T14:40:27;98220.50;;;8.97;58.27
42519;BME280;28147;47.520;18.920;2022-12-07T14:43:09;98220.19;;;9.06;57.83
42519;BME280;28147;47.520;18.920;2022-12-07T14:45:36;98216.06;;;8.68;58.72
42519;BME280;28147;47.520;18.920;2022-12-07T14:48:01;98223.75;;;8.58;58.79
42519;BME280;28147;47.520;18.920;2022-12-07T14:50:27;98215.00;;;8.39;58.81
42519;BME280;28147;47.520;18.920;2022-12-07T14:53:00;98212.31;;;8.57;58.59
42519;BME280;28147;47.520;18.920;2022-12-07T14:55:30;98221.13;;;8.39;58.46
42519;BME280;28147;47.520;18.920;2022-12-07T14:57:57;98227.38;;;8.26;58.78
42519;BME280;28147;47.520;18.920;2022-12-07T15:00:26;98229.06;;;8.21;59.11
42519;BME280;28147;47.520;18.920;2022-12-07T15:04:36;98226.78;;;8.06;59.06
42519;BME280;28147;47.520;18.920;2022-12-07T15:07:04;98230.53;;;8.17;58.80
42519;BME280;28147;47.520;18.920;2022-12-07T15:09:30;98231.84;;;8.44;58.26
42519;BME280;28147;47.520;18.920;2022-12-07T15:11:56;98233.03;;;8.30;57.91
42519;BME280;28147;47.520;18.920;2022-12-07T15:14:21;98236.47;;;8.37;57.82
42519;BME280;28147;47.520;18.920;2022-12-07T15:16:47;98231.03;;;8.25;57.93
42519;BME280;28147;47.520;18.920;2022-12-07T15:19:20;98235.75;;;8.05;58.91
42519;BME280;28147;47.520;18.920;2022-12-07T15:21:57;98242.97;;;7.98;58.98
42519;BME280;28147;47.520;18.920;2022-12-07T15:24:23;98240.38;;;7.91;59.00
42519;BME280;28147;47.520;18.920;2022-12-07T15:26:49;98237.53;;;7.93;58.78
42519;BME280;28147;47.520;18.920;2022-12-07T15:29:14;98240.69;;;7.83;58.56
42519;BME280;28147;47.520;18.920;2022-12-07T15:31:41;98253.94;;;7.83;58.29
42519;BME280;28147;47.520;18.920;2022-12-07T15:34:06;98242.44;;;7.71;58.85
42519;BME280;28147;47.520;18.920;2022-12-07T15:36:33;98246.66;;;7.53;59.06
42519;BME280;28147;47.520;18.920;2022-12-07T15:38:59;98252.78;;;7.29;59.82
42519;BME280;28147;47.520;18.920;2022-12-07T15:41:24;98244.69;;;7.24;59.61
42519;BME280;28147;47.520;18.920;2022-12-07T15:43:50;98251.47;;;7.38;59.54
42519;BME280;28147;47.520;18.920;2022-12-07T15:49:01;98263.66;;;7.21;59.42
42519;BME280;28147;47.520;18.920;2022-12-07T15:51:26;98260.09;;;7.34;59.39
42519;BME280;28147;47.520;18.920;2022-12-07T15:53:52;98266.19;;;7.34;59.16
42519;BME280;28147;47.520;18.920;2022-12-07T15:56:18;98263.53;;;7.09;59.62
42519;BME280;28147;47.520;18.920;2022-12-07T15:58:44;98253.75;;;7.10;59.48
42519;BME280;28147;47.520;18.920;2022-12-07T16:01:14;98257.25;;;7.03;59.51
42519;BME280;28147;47.520;18.920;2022-12-07T16:03:40;98252.44;;;7.19;59.04
42519;BME280;28147;47.520;18.920;2022-12-07T16:06:06;98252.66;;;6.86;59.34
42519;BME280;28147;47.520;18.920;2022-12-07T16:10:06;98250.78;;;6.93;58.89
42519;BME280;28147;47.520;18.920;2022-12-07T16:12:32;98251.94;;;7.03;58.96
42519;BME280;28147;47.520;18.920;2022-12-07T16:14:57;98249.72;;;6.69;59.40
42519;BME280;28147;47.520;18.920;2022-12-07T16:17:23;98245.34;;;6.56;59.99
42519;BME280;28147;47.520;18.920;2022-12-07T16:19:48;98249.50;;;6.70;59.50